Time;durP1;ratioP1;P1;durP2;ratioP2;P2;SDS_P1;SDS_P2;PMS_P1;PMS_P2;Temp;Humidity;BMP_temperature;BMP_pressure;BME280_temperature;BME280_humidity;BME280_pressure;Samples;Min_cycle;Max_cycle;Signal;HPM_P1;HPM_P2
2022/12/31 00:01:53;;;;;;;1.65;1.55;;;;;;;11.96;100.00;100125.34;5007341;28;20512;-72
2022/12/31 00:04:19;;;;;;;1.88;1.77;;;;;;;11.96;100.00;100125.34;5012729;28;20026;-72
2022/12/31 00:06:45;;;;;;;2.03;1.73;;;;;;;11.98;100.00;100118.59;5012956;28;20052;-73
2022/12/31 00:09:10;;;;;;;4.50;1.77;;;;;;;12.01;100.00;100119.97;5012979;28;20036;-74
2022/12/31 00:11:36;;;;;;;2.72;1.50;;;;;;;12.02;100.00;100121.63;5010249;28;20038;-73
2022/12/31 00:14:02;;;;;;;4.25;1.60;;;;;;;12.03;100.00;100123.25;5011925;28;20065;-75
2022/12/31 00:16:30;;;;;;;1.85;1.70;;;;;;;12.04;100.00;100124.91;5012616;28;20034;-71
2022/12/31 00:19:00;;;;;;;5.32;1.80;;;;;;;12.06;100.00;100120.03;5011588;28;20393;-72
2022/12/31 00:21:27;;;;;;;1.70;1.60;;;;;;;12.03;100.00;100121.38;5010250;28;20579;-72
2022/12/31 00:23:53;;;;;;;2.15;1.95;;;;;;;12.05;100.00;100123.84;5012713;28;20030;-74
2022/12/31 00:26:21;;;;;;;4.88;1.80;;;;;;;12.05;100.00;100126.53;5012540;28;20100;-71
2022/12/31 00:28:47;;;;;;;2.83;1.58;;;;;;;12.07;100.00;100127.09;5012778;28;20026;-71
2022/12/31 00:31:16;;;;;;;2.95;1.88;;;;;;;12.06;100.00;100114.59;5009422;28;20069;-73
2022/12/31 00:33:42;;;;;;;2.58;1.60;;;;;;;12.06;100.00;100103.75;5012741;28;20034;-73
2022/12/31 00:36:16;;;;;;;1.63;1.52;;;;;;;12.07;100.00;100096.47;5012689;28;20454;-71
2022/12/31 00:38:45;;;;;;;2.10;1.90;;;;;;;12.05;100.00;100107.56;5012364;28;20473;-73
2022/12/31 00:41:12;;;;;;;4.30;2.30;;;;;;;12.05;100.00;100096.72;5009286;28;20426;-72
2022/12/31 00:43:37;;;;;;;2.28;2.03;;;;;;;12.02;100.00;100091.81;5003003;28;20038;-73
2022/12/31 00:46:04;;;;;;;2.47;1.75;;;;;;;12.03;100.00;100104.25;4993077;28;20041;-72
2022/12/31 00:48:29;;;;;;;1.50;1.40;;;;;;;12.02;100.00;100098.03;4992931;28;20050;-71
2022/12/31 00:50:55;;;;;;;3.33;1.80;;;;;;;12.03;100.00;100096.13;4991449;28;20034;-73
2022/12/31 00:53:21;;;;;;;1.75;1.40;;;;;;;12.07;100.00;100102.69;4994932;28;20109;-73
2022/12/31 00:55:46;;;;;;;1.98;1.17;;;;;;;12.04;100.00;100095.88;5011192;28;20472;-72
2022/12/31 00:58:12;;;;;;;1.33;1.10;;;;;;;12.03;100.00;100094.25;5012486;28;20045;-74
2022/12/31 01:00:37;;;;;;;1.58;1.38;;;;;;;12.04;100.00;100092.34;5010068;28;20034;-71
2022/12/31 01:03:03;;;;;;;1.30;1.20;;;;;;;12.05;100.00;100085.88;5009895;28;20231;-72
2022/12/31 01:05:30;;;;;;;1.40;1.30;;;;;;;12.03;100.00;100088.00;4993564;28;20462;-71
2022/12/31 01:07:55;;;;;;;1.08;1.08;;;;;;;12.02;100.00;100097.22;4994385;28;20034;-74
2022/12/31 01:13:05;;;;;;;1.77;1.00;;;;;;;12.00;100.00;100083.09;4996371;28;20053;-74
2022/12/31 01:15:34;;;;;;;1.35;0.93;;;;;;;11.96;100.00;100065.69;5014665;28;20385;-72
2022/12/31 01:18:01;;;;;;;1.45;1.10;;;;;;;11.97;100.00;100067.31;5016091;28;20030;-72
2022/12/31 01:20:27;;;;;;;2.22;1.05;;;;;;;11.95;100.00;100070.28;5016096;28;20061;-72
2022/12/31 01:22:52;;;;;;;1.05;0.85;;;;;;;11.93;100.00;100074.34;5014244;28;20077;-73
2022/12/31 01:25:17;;;;;;;0.70;0.70;;;;;;;11.92;100.00;100080.78;5014398;28;20033;-73
2022/12/31 01:27:43;;;;;;;1.42;0.80;;;;;;;11.88;100.00;100088.59;5015997;28;20041;-73
2022/12/31 01:30:09;;;;;;;0.70;0.70;;;;;;;11.85;100.00;100083.69;5014247;28;20034;-73
2022/12/31 01:32:34;;;;;;;2.17;0.70;;;;;;;11.82;100.00;100087.75;5015501;28;20030;-73
2022/12/31 01:34:59;;;;;;;1.63;0.60;;;;;;;11.81;100.00;100096.94;4997457;28;20462;-73
2022/12/31 01:37:25;;;;;;;1.25;0.60;;;;;;;11.80;100.00;100091.75;5011112;28;20069;-73
2022/12/31 01:39:50;;;;;;;1.95;1.00;;;;;;;11.79;100.00;100092.81;4995900;28;20030;-73
2022/12/31 01:42:15;;;;;;;0.63;0.63;;;;;;;11.76;100.00;100099.59;4996287;28;20359;-73
2022/12/31 01:44:46;;;;;;;0.70;0.60;;;;;;;11.75;100.00;100103.34;4994862;28;20046;-73
2022/12/31 01:47:16;;;;;;;0.97;0.57;;;;;;;11.76;100.00;100099.59;4994754;28;20034;-73
2022/12/31 01:49:47;;;;;;;1.73;0.50;;;;;;;11.74;100.00;100117.97;4995693;28;20030;-73
2022/12/31 01:52:19;;;;;;;1.08;0.57;;;;;;;11.75;100.00;100135.88;4994546;28;20022;-73
2022/12/31 01:54:50;;;;;;;2.85;0.63;;;;;;;11.75;100.00;100164.88;4993297;28;20437;-73
2022/12/31 01:57:16;;;;;;;2.10;0.70;;;;;;;11.74;100.00;100165.94;4995787;28;20397;-73
2022/12/31 01:59:43;;;;;;;2.70;0.75;;;;;;;11.77;100.00;100144.56;4995049;28;20026;-74
2022/12/31 02:02:09;;;;;;;0.73;0.50;;;;;;;11.74;100.00;100117.97;4992130;28;20130;-73
2022/12/31 02:04:34;;;;;;;0.65;0.50;;;;;;;11.74;100.00;100109.84;4992774;28;20050;-74
2022/12/31 02:07:06;;;;;;;0.90;0.57;;;;;;;11.76;100.00;100121.28;5001723;28;20030;-74
2022/12/31 02:09:32;;;;;;;0.60;0.60;;;;;;;11.74;100.00;100117.97;4995315;28;20501;-74
2022/12/31 02:11:58;;;;;;;0.55;0.55;;;;;;;11.75;100.00;100118.81;4995572;28;20120;-73
2022/12/31 02:14:27;;;;;;;0.70;0.70;;;;;;;11.75;100.00;100119.63;4995391;28;20105;-73
2022/12/31 02:17:19;;;;;;;0.80;0.80;;;;;;;11.76;100.00;100128.56;4995399;28;20153;-73
2022/12/31 02:20:15;;;;;;;0.60;0.60;;;;;;;11.76;100.00;100136.69;5001659;28;20034;-73
2022/12/31 02:23:12;;;;;;;1.55;0.90;;;;;;;11.82;100.00;100151.97;4995006;28;20038;-73
2022/12/31 02:26:05;;;;;;;2.15;2.05;;;;;;;11.78;100.00;100162.50;4993755;28;20401;-72
2022/12/31 02:28:48;;;;;;;4.85;3.40;;;;;;;11.80;100.00;100156.81;4995120;28;20041;-72
2022/12/31 02:31:25;;;;;;;2.28;2.08;;;;;;;11.78;100.00;100167.09;4993515;28;20041;-72
2022/12/31 02:33:57;;;;;;;1.60;1.50;;;;;;;11.76;100.00;100166.50;4994940;28;20042;-72
2022/12/31 02:36:26;;;;;;;2.33;1.30;;;;;;;11.76;100.00;100159.22;4995086;28;20093;-72
2022/12/31 02:38:53;;;;;;;1.33;1.33;;;;;;;11.77;100.00;100160.84;4994496;28;20065;-74
2022/12/31 02:44:26;;;;;;;1.77;1.67;;;;;;;11.77;100.00;100177.09;5014232;28;20092;-72
2022/12/31 02:46:58;;;;;;;3.33;1.73;;;;;;;11.75;100.00;100179.25;5014559;28;20037;-73
2022/12/31 02:49:39;;;;;;;2.30;2.10;;;;;;;11.74;100.00;100183.03;5006251;28;20125;-73
2022/12/31 02:52:41;;;;;;;3.00;2.30;;;;;;;11.76;100.00;100167.34;5011937;28;20481;-74
2022/12/31 02:55:09;;;;;;;;;;;;;;;11.75;100.00;100157.56;5014544;28;20349;-73
2022/12/31 02:57:46;;;;;;;2.20;2.03;;;;;;;11.69;100.00;100153.16;5014026;28;19988;-73
2022/12/31 03:03:00;;;;;;;2.40;2.30;;;;;;;11.69;100.00;100161.28;5013992;28;20524;-74
2022/12/31 03:05:29;;;;;;;2.00;1.90;;;;;;;11.68;100.00;100155.06;5014349;28;20034;-74
2022/12/31 03:07:54;;;;;;;1.60;1.60;;;;;;;11.64;100.00;100151.19;5014051;28;20532;-74
2022/12/31 03:10:20;;;;;;;2.55;1.60;;;;;;;11.64;100.00;100150.34;5000946;28;20034;-74
2022/12/31 03:12:46;;;;;;;1.75;1.65;;;;;;;11.63;100.00;100148.72;5005667;28;20410;-74
2022/12/31 03:15:20;;;;;;;2.05;1.73;;;;;;;11.60;100.00;100139.19;4992720;28;20030;-73
2022/12/31 03:17:54;;;;;;;1.98;1.88;;;;;;;11.60;100.00;100138.38;4994032;28;20031;-73
2022/12/31 03:23:13;;;;;;;1.50;1.50;;;;;;;11.59;100.00;100132.13;5013699;28;20469;-74
2022/12/31 03:25:39;;;;;;;3.25;1.70;;;;;;;11.61;100.00;100134.59;5012248;28;20466;-73
2022/12/31 03:28:10;;;;;;;1.50;1.40;;;;;;;11.59;100.00;100120.47;5013668;28;20041;-73
2022/12/31 03:30:37;;;;;;;;;;;;;;;11.63;100.00;100127.06;5005868;28;20061;-74
2022/12/31 03:33:03;;;;;;;1.30;1.20;;;;;;;11.59;100.00;100125.91;4992702;28;19913;-73
2022/12/31 03:35:31;;;;;;;1.10;1.10;;;;;;;11.57;100.00;100119.91;4992409;28;20367;-74
2022/12/31 03:37:57;;;;;;;1.55;1.45;;;;;;;11.56;100.00;100118.28;4994173;28;20031;-73
2022/12/31 03:40:24;;;;;;;1.67;1.50;;;;;;;11.57;100.00;100106.38;4995710;28;20105;-74
2022/12/31 03:42:49;;;;;;;1.75;1.65;;;;;;;11.56;100.00;100107.44;5013128;28;20034;-73
2022/12/31 03:45:15;;;;;;;1.40;1.40;;;;;;;11.55;100.00;100103.06;5012059;28;20036;-73
2022/12/31 03:47:40;;;;;;;1.60;1.50;;;;;;;11.52;100.00;100107.94;5013112;28;20030;-74
2022/12/31 03:50:08;;;;;;;1.50;1.50;;;;;;;11.52;100.00;100096.28;5011070;28;20056;-73
2022/12/31 03:52:33;;;;;;;1.45;1.33;;;;;;;11.52;100.00;100093.56;4993694;28;20061;-74
2022/12/31 03:55:00;;;;;;;1.90;1.30;;;;;;;11.53;100.00;100100.63;4993433;28;20023;-73
2022/12/31 03:57:26;;;;;;;1.40;1.30;;;;;;;11.53;100.00;100096.03;4992561;28;20403;-73
2022/12/31 03:59:51;;;;;;;1.27;1.20;;;;;;;11.53;100.00;100087.91;4993091;28;20121;-73
2022/12/31 04:02:16;;;;;;;1.13;1.02;;;;;;;11.55;100.00;100093.06;4990388;28;20108;-72
2022/12/31 04:04:42;;;;;;;1.35;0.90;;;;;;;11.57;100.00;100095.53;4993001;28;20069;-72
2022/12/31 04:07:07;;;;;;;2.92;0.90;;;;;;;11.55;100.00;100097.66;4993795;28;20109;-74
2022/12/31 04:09:32;;;;;;;0.90;0.80;;;;;;;11.58;100.00;100086.31;4993083;28;20030;-72
2022/12/31 04:11:57;;;;;;;0.95;0.90;;;;;;;11.59;100.00;100087.97;4992654;28;20031;-73
2022/12/31 04:14:23;;;;;;;1.80;0.70;;;;;;;11.63;100.00;100086.41;4993363;28;20034;-74
2022/12/31 04:16:48;;;;;;;0.55;0.55;;;;;;;11.67;100.00;100090.22;4991837;28;20037;-73
2022/12/31 04:19:14;;;;;;;2.35;0.63;;;;;;;11.69;100.00;100085.41;4993017;28;20031;-73
2022/12/31 04:21:39;;;;;;;2.00;0.70;;;;;;;11.77;100.00;100079.53;4990940;28;20042;-74
2022/12/31 04:24:05;;;;;;;2.05;0.90;;;;;;;11.83;100.00;100067.66;4993166;28;20588;-74
2022/12/31 04:26:31;;;;;;;1.98;0.80;;;;;;;11.91;100.00;100087.28;4993184;28;20041;-72
2022/12/31 04:28:56;;;;;;;2.60;0.80;;;;;;;11.93;100.00;100063.50;4993016;28;20034;-71
2022/12/31 04:31:22;;;;;;;2.65;1.02;;;;;;;12.04;100.00;100067.94;5000487;28;20457;-72
2022/12/31 04:33:47;;;;;;;4.10;1.10;;;;;;;12.10;100.00;100063.41;5011138;28;20103;-71
2022/12/31 04:36:13;;;;;;;5.57;1.02;;;;;;;12.16;100.00;100068.63;5012698;28;20117;-73
2022/12/31 04:38:38;;;;;;;7.50;1.45;;;;;;;12.28;100.00;100038.63;5011125;28;20030;-72
2022/12/31 04:41:15;;;;;;;8.10;1.70;;;;;;;12.32;100.00;100036.22;5011044;28;20112;-74
2022/12/31 04:43:42;;;;;;;3.70;1.17;;;;;;;12.43;100.00;100059.69;5013841;28;20100;-73
2022/12/31 04:46:08;;;;;;;4.10;1.15;;;;;;;12.54;100.00;100074.97;5015358;28;20397;-74
2022/12/31 04:48:33;;;;;;;3.22;1.10;;;;;;;12.67;100.00;100081.06;5016244;28;20037;-73
2022/12/31 04:50:59;;;;;;;3.17;1.00;;;;;;;12.74;100.00;100071.63;5011243;28;20038;-73
2022/12/31 04:53:24;;;;;;;3.70;1.00;;;;;;;12.82;100.00;100069.50;5014549;28;20033;-74
2022/12/31 04:55:50;;;;;;;3.30;1.10;;;;;;;12.84;100.00;100087.19;5015422;28;20565;-74
2022/12/31 04:58:15;;;;;;;3.65;1.00;;;;;;;12.90;100.00;100091.56;5015177;28;20033;-74
2022/12/31 05:00:41;;;;;;;4.43;1.30;;;;;;;12.94;100.00;100097.31;5011049;28;20041;-72
2022/12/31 05:03:06;;;;;;;4.68;1.08;;;;;;;13.02;100.00;100096.03;5014885;28;20044;-72
2022/12/31 05:05:31;;;;;;;4.10;0.80;;;;;;;13.07;100.00;100099.59;5016383;28;20366;-71
2022/12/31 05:07:56;;;;;;;2.40;0.90;;;;;;;13.10;100.00;100109.13;5016056;28;20084;-72
2022/12/31 05:10:22;;;;;;;4.28;1.00;;;;;;;13.12;100.00;100109.69;5012813;28;20057;-74
2022/12/31 05:12:47;;;;;;;3.30;1.00;;;;;;;13.19;100.00;100104.81;4996803;28;20030;-75
2022/12/31 05:15:13;;;;;;;1.60;0.80;;;;;;;13.26;100.00;100100.00;4996293;28;20038;-74
2022/12/31 05:17:38;;;;;;;2.30;0.88;;;;;;;13.25;100.00;100114.66;4996317;28;20030;-71
2022/12/31 05:20:04;;;;;;;2.28;0.80;;;;;;;13.33;100.00;100116.09;4996203;28;20026;-73
2022/12/31 05:22:29;;;;;;;3.17;0.80;;;;;;;13.34;100.00;100125.09;5009557;28;20044;-72
2022/12/31 05:24:59;;;;;;;4.55;1.00;;;;;;;13.47;100.00;100119.19;4995248;28;20038;-72
2022/12/31 05:27:25;;;;;;;2.50;0.85;;;;;;;13.50;100.00;100117.81;4996336;28;20023;-72
2022/12/31 05:29:51;;;;;;;1.88;0.70;;;;;;;13.48;100.00;100134.41;5001176;28;20033;-72
2022/12/31 05:32:16;;;;;;;3.28;0.63;;;;;;;13.51;100.00;100136.59;5001280;28;20488;-72
2022/12/31 05:34:42;;;;;;;1.38;0.60;;;;;;;13.50;100.00;100137.69;5015730;28;20030;-75
2022/12/31 05:37:07;;;;;;;2.60;0.85;;;;;;;13.46;100.00;100142.00;5015465;28;20025;-72
2022/12/31 05:39:32;;;;;;;2.67;0.63;;;;;;;13.45;100.00;100143.06;5014579;28;20083;-75
2022/12/31 05:41:57;;;;;;;1.58;0.60;;;;;;;13.46;100.00;100142.81;5002932;28;20382;-74
2022/12/31 05:44:23;;;;;;;1.77;0.70;;;;;;;13.46;100.00;100136.56;4995691;28;20030;-75
2022/12/31 05:46:48;;;;;;;1.67;0.68;;;;;;;13.47;100.00;100146.38;4996058;28;20022;-73
2022/12/31 05:49:13;;;;;;;2.10;0.60;;;;;;;13.44;100.00;100144.19;4994838;28;20030;-72
2022/12/31 05:51:39;;;;;;;4.10;1.08;;;;;;;13.50;100.00;100142.28;4995878;28;20027;-73
2022/12/31 05:54:04;;;;;;;4.85;1.00;;;;;;;13.58;100.00;100129.03;4995806;28;20054;-71
2022/12/31 05:56:29;;;;;;;4.32;0.80;;;;;;;13.56;100.00;100139.38;4995807;28;20088;-74
2022/12/31 05:58:55;;;;;;;2.50;0.85;;;;;;;13.64;100.00;100127.16;4993920;28;20556;-74
2022/12/31 06:01:20;;;;;;;1.85;0.52;;;;;;;13.63;100.00;100110.06;5008944;28;20054;-75
2022/12/31 06:03:46;;;;;;;1.55;0.90;;;;;;;13.65;100.00;100137.78;5013460;28;20095;-74
2022/12/31 06:06:11;;;;;;;2.05;0.80;;;;;;;13.71;100.00;100145.97;5013963;28;20104;-74
2022/12/31 06:08:36;;;;;;;1.95;0.40;;;;;;;13.80;100.00;100145.22;5014924;28;20026;-75
2022/12/31 06:11:02;;;;;;;2.13;0.75;;;;;;;13.85;100.00;100130.81;5011372;28;20080;-75
2022/12/31 06:13:27;;;;;;;1.27;0.65;;;;;;;13.93;100.00;100160.22;5015109;28;20088;-74
2022/12/31 06:15:52;;;;;;;1.52;0.70;;;;;;;14.03;100.00;100151.31;5014870;28;20030;-72
2022/12/31 06:18:18;;;;;;;0.85;0.70;;;;;;;14.04;100.00;100169.28;5014782;28;20121;-73
2022/12/31 06:20:43;;;;;;;2.20;0.75;;;;;;;14.05;100.00;100165.44;5009737;28;20048;-74
2022/12/31 06:23:08;;;;;;;1.55;0.70;;;;;;;14.08;100.00;100177.72;5014885;28;20033;-75
2022/12/31 06:25:35;;;;;;;2.83;0.77;;;;;;;14.10;100.00;100164.66;5014963;28;20087;-74
2022/12/31 06:28:01;;;;;;;1.98;0.60;;;;;;;14.20;100.00;100183.75;5014631;28;20029;-74
2022/12/31 06:30:26;;;;;;;3.30;0.73;;;;;;;14.22;100.00;100175.31;5009856;28;20390;-73
2022/12/31 06:32:53;;;;;;;4.85;0.68;;;;;;;14.31;100.00;100184.59;5013222;28;20026;-75
2022/12/31 06:35:22;;;;;;;1.88;0.50;;;;;;;14.40;100.00;100187.63;5014762;28;20037;-74
2022/12/31 06:37:47;;;;;;;1.45;0.90;;;;;;;14.43;100.00;100174.34;5014493;28;20069;-75
2022/12/31 06:40:13;;;;;;;3.53;0.63;;;;;;;14.43;100.00;100190.66;5009317;28;20120;-74
2022/12/31 06:42:38;;;;;;;2.05;0.65;;;;;;;14.48;100.00;100173.53;5013669;28;20033;-74
2022/12/31 06:45:04;;;;;;;2.75;0.65;;;;;;;14.52;100.00;100177.34;5012739;28;20065;-75
2022/12/31 06:47:30;;;;;;;2.08;0.70;;;;;;;14.52;100.00;100186.34;5014704;28;20458;-76
2022/12/31 06:49:55;;;;;;;3.38;0.73;;;;;;;14.58;100.00;100189.88;5005861;28;20022;-73
2022/12/31 06:52:20;;;;;;;4.18;0.90;;;;;;;14.66;100.00;100178.50;5013127;28;20121;-73
2022/12/31 06:54:47;;;;;;;3.00;0.75;;;;;;;14.64;100.00;100182.56;5014097;28;20084;-74
2022/12/31 06:57:13;;;;;;;2.28;0.70;;;;;;;14.63;100.00;100187.22;5014130;28;20037;-74
2022/12/31 06:59:38;;;;;;;4.60;0.80;;;;;;;14.63;100.00;100202.72;5005218;28;20112;-71
2022/12/31 07:02:16;;;;;;;4.60;0.93;;;;;;;14.65;100.00;100176.84;5010827;28;20465;-72
2022/12/31 07:05:06;;;;;;;3.78;0.70;;;;;;;14.70;100.00;100176.88;5012771;28;20358;-74
2022/12/31 07:07:41;;;;;;;5.13;0.80;;;;;;;14.70;100.00;100182.34;5014136;28;20105;-76
2022/12/31 07:10:24;;;;;;;2.50;0.65;;;;;;;14.71;100.00;100177.69;5006365;28;20421;-74
2022/12/31 07:13:05;;;;;;;3.25;0.88;;;;;;;14.71;100.00;100181.22;5013728;28;20467;-73
2022/12/31 07:15:47;;;;;;;3.13;0.90;;;;;;;14.72;100.00;100182.06;5012705;28;20034;-72
2022/12/31 07:18:55;;;;;;;3.47;0.85;;;;;;;14.68;100.00;100194.56;5013667;28;20030;-73
2022/12/31 07:21:32;;;;;;;3.65;1.02;;;;;;;14.66;100.00;100192.13;5016703;28;20042;-73
2022/12/31 07:23:58;;;;;;;2.63;0.77;;;;;;;14.62;100.00;100190.19;4993689;28;20041;-76
2022/12/31 07:26:42;;;;;;;2.72;0.85;;;;;;;14.61;100.00;100191.28;4995204;28;20034;-73
2022/12/31 07:29:17;;;;;;;3.75;0.80;;;;;;;14.58;100.00;100194.50;5012503;28;20472;-72
2022/12/31 07:32:27;;;;;;;4.43;0.85;;;;;;;14.61;100.00;100204.91;5011273;28;20034;-76
2022/12/31 07:35:26;;;;;;;3.65;0.98;;;;;;;14.61;100.00;100197.53;5013366;28;20041;-74
2022/12/31 07:38:20;;;;;;;2.50;0.82;;;;;;;14.62;100.00;100204.63;4994160;28;20386;-75
2022/12/31 07:41:11;;;;;;;4.60;1.40;;;;;;;14.57;100.00;100196.41;5012113;28;20488;-74
2022/12/31 07:44:02;;;;;;;4.05;0.90;;;;;;;14.57;100.00;100210.03;5013414;28;20105;-72
2022/12/31 07:46:28;;;;;;;;;;;;;;;14.57;100.00;100206.47;5005789;28;20066;-75
2022/12/31 07:48:53;;;;;;;5.93;1.00;;;;;;;14.50;100.00;100214.91;4993521;28;20000;-74
2022/12/31 07:51:19;;;;;;;5.97;1.35;;;;;;;14.49;100.00;100203.22;5007687;28;20034;-76
2022/12/31 07:53:44;;;;;;;4.05;1.05;;;;;;;14.42;100.00;100196.34;5013525;28;20029;-75
2022/12/31 07:56:10;;;;;;;3.50;1.15;;;;;;;14.34;100.00;100200.41;5002450;28;20471;-75
2022/12/31 07:58:48;;;;;;;4.85;1.10;;;;;;;14.34;100.00;100197.69;4993331;28;20026;-73
2022/12/31 08:01:18;;;;;;;3.80;1.38;;;;;;;14.28;100.00;100194.16;5003049;28;20413;-74
2022/12/31 08:04:00;;;;;;;4.25;1.10;;;;;;;14.28;100.00;100209.63;5011326;28;20061;-74
2022/12/31 08:06:35;;;;;;;3.42;1.02;;;;;;;14.28;100.00;100229.53;5005987;28;20034;-74
2022/12/31 08:09:03;;;;;;;6.10;1.13;;;;;;;14.32;100.00;100232.53;4993068;28;20038;-75
2022/12/31 08:11:35;;;;;;;3.28;1.00;;;;;;;14.29;100.00;100247.47;5007573;28;20041;-73
2022/12/31 08:14:01;;;;;;;3.63;1.08;;;;;;;14.23;100.00;100245.81;5012711;28;20034;-75
2022/12/31 08:16:27;;;;;;;2.92;1.00;;;;;;;14.20;100.00;100242.81;5005656;28;20038;-77
2022/12/31 08:18:53;;;;;;;2.75;1.00;;;;;;;14.11;100.00;100253.38;4990732;28;20377;-76
2022/12/31 08:21:42;;;;;;;3.72;1.23;;;;;;;14.16;100.00;100275.16;4999413;28;20037;-75
2022/12/31 08:24:46;;;;;;;5.43;1.10;;;;;;;14.20;100.00;100286.34;5011891;28;20101;-76
2022/12/31 08:27:30;;;;;;;4.65;1.30;;;;;;;14.12;100.00;100290.38;4999181;28;20482;-75
2022/12/31 08:30:35;;;;;;;3.88;1.20;;;;;;;14.17;100.00;100306.72;4994289;28;20094;-76
2022/12/31 08:33:13;;;;;;;3.40;0.85;;;;;;;14.14;100.00;100313.50;5006200;28;20103;-76
2022/12/31 08:36:01;;;;;;;3.00;1.02;;;;;;;14.16;100.00;100300.47;4990860;28;20048;-74
2022/12/31 08:38:45;;;;;;;5.80;1.20;;;;;;;14.27;100.00;100320.41;4992739;28;20450;-75
2022/12/31 08:41:37;;;;;;;4.68;1.45;;;;;;;14.30;100.00;100330.75;4992119;28;20359;-74
2022/12/31 08:44:34;;;;;;;4.10;1.00;;;;;;;14.28;100.00;100323.94;4999985;28;20677;-74
2022/12/31 08:47:02;;;;;;;5.38;1.00;;;;;;;14.27;100.00;100339.47;5002669;28;20049;-75
2022/12/31 08:49:29;;;;;;;4.07;1.20;;;;;;;14.31;100.00;100342.47;4991291;28;20121;-74
2022/12/31 08:51:55;;;;;;;5.75;1.10;;;;;;;14.32;100.00;100334.03;4992647;28;20459;-74
2022/12/31 08:54:21;;;;;;;3.90;1.50;;;;;;;14.30;100.00;100335.41;4992099;28;20057;-76
2022/12/31 08:57:04;;;;;;;6.00;1.10;;;;;;;14.33;100.00;100356.66;4992385;28;20031;-75
2022/12/31 08:59:40;;;;;;;4.13;1.20;;;;;;;14.44;100.00;100368.41;5003845;28;20038;-74
2022/12/31 09:02:06;;;;;;;5.63;1.27;;;;;;;14.44;100.00;100368.41;5008266;28;20040;-75
2022/12/31 09:04:45;;;;;;;3.63;1.00;;;;;;;14.45;100.00;100380.97;5000752;28;20113;-76
2022/12/31 09:07:12;;;;;;;2.97;0.90;;;;;;;14.36;100.00;100372.44;4990940;28;20324;-75
2022/12/31 09:09:52;;;;;;;2.20;0.88;;;;;;;14.34;100.00;100397.22;4991338;28;20030;-75
2022/12/31 09:13:19;;;;;;;2.95;1.10;;;;;;;14.31;100.00;100399.63;4992776;28;20034;-76
2022/12/31 09:16:06;;;;;;;2.45;1.13;;;;;;;14.23;100.00;100400.13;5023881;28;20029;-77
2022/12/31 09:18:37;;;;;;;2.35;1.15;;;;;;;14.16;100.00;100412.03;5029810;28;20037;-76
2022/12/31 09:21:02;;;;;;;5.15;1.58;;;;;;;14.09;100.00;100422.31;5015362;28;20390;-78
2022/12/31 09:23:28;;;;;;;4.88;1.77;;;;;;;14.04;100.00;100432.31;5005526;28;20039;-75
2022/12/31 09:26:04;;;;;;;6.25;1.80;;;;;;;13.96;100.00;100428.19;5005566;28;20038;-76
2022/12/31 09:28:58;;;;;;;6.63;1.33;;;;;;;13.88;100.00;100437.63;4996523;28;20501;-75
2022/12/31 09:31:39;;;;;;;5.47;1.50;;;;;;;13.85;100.00;100438.16;5015793;28;20034;-74
2022/12/31 09:34:11;;;;;;;4.00;1.20;;;;;;;13.79;100.00;100434.53;5008372;28;20089;-74
2022/12/31 09:36:47;;;;;;;3.75;1.30;;;;;;;13.82;100.00;100441.38;5015818;28;20696;-76
2022/12/31 09:39:43;;;;;;;4.03;1.38;;;;;;;13.80;100.00;100440.81;5014011;28;20462;-76
2022/12/31 09:42:17;;;;;;;3.67;1.30;;;;;;;13.79;100.00;100433.72;5011449;28;20057;-75
2022/12/31 09:45:12;;;;;;;7.53;1.70;;;;;;;13.85;100.00;100446.31;4995959;28;20038;-76
2022/12/31 09:47:59;;;;;;;3.90;1.58;;;;;;;13.86;100.00;100452.56;4995799;28;20052;-73
2022/12/31 09:50:40;;;;;;;6.72;1.98;;;;;;;13.93;100.00;100434.94;4994456;28;20113;-74
2022/12/31 09:53:15;;;;;;;6.20;1.70;;;;;;;13.96;100.00;100434.44;5008115;28;20038;-76
2022/12/31 09:56:23;;;;;;;4.63;1.40;;;;;;;14.03;100.00;100441.59;5014184;28;20083;-76
2022/12/31 09:59:08;;;;;;;6.72;1.40;;;;;;;14.07;100.00;100445.41;5010177;28;20053;-75
2022/12/31 10:01:38;;;;;;;5.18;1.38;;;;;;;14.11;100.00;100446.53;5010044;28;20477;-77
2022/12/31 10:04:34;;;;;;;3.72;1.45;;;;;;;14.18;100.00;100447.16;5005218;28;20088;-74
2022/12/31 10:07:09;;;;;;;4.13;1.77;;;;;;;14.16;100.00;100443.84;5014650;28;20485;-77
2022/12/31 10:10:00;;;;;;;5.38;1.73;;;;;;;14.24;100.00;100462.44;5009243;28;20105;-75
2022/12/31 10:12:53;;;;;;;5.28;1.63;;;;;;;14.31;100.00;100451.34;5011849;28;20064;-75
2022/12/31 10:15:37;;;;;;;3.20;1.15;;;;;;;14.30;100.00;100455.16;5014799;28;20488;-77
2022/12/31 10:18:17;;;;;;;3.70;1.38;;;;;;;14.32;100.00;100452.97;5013445;28;20117;-76
2022/12/31 10:21:01;;;;;;;4.82;1.30;;;;;;;14.36;100.00;100449.47;5014725;28;20112;-74
2022/12/31 10:23:32;;;;;;;6.72;1.30;;;;;;;14.32;100.00;100448.34;5014807;28;20066;-78
2022/12/31 10:26:10;;;;;;;4.55;1.55;;;;;;;14.38;100.00;100456.56;5012838;28;20088;-76
2022/12/31 10:28:54;;;;;;;6.35;1.60;;;;;;;14.36;100.00;100446.75;5014080;28;20087;-77
2022/12/31 10:31:38;;;;;;;6.82;1.45;;;;;;;14.40;100.00;100435.34;5014441;28;20112;-77
2022/12/31 10:34:30;;;;;;;5.72;1.52;;;;;;;14.42;100.00;100427.72;5014272;28;20465;-76
2022/12/31 10:37:07;;;;;;;;;;;;;;;14.47;100.00;100422.34;5002945;28;20504;-76
2022/12/31 10:39:58;;;;;;;5.97;1.38;;;;;;;14.46;100.00;100420.69;4994202;28;20243;-76
2022/12/31 10:42:32;;;;;;;5.28;1.65;;;;;;;14.48;100.00;100432.16;5007064;28;20041;-76
2022/12/31 10:45:22;;;;;;;9.23;2.15;;;;;;;14.52;100.00;100435.97;5012513;28;20083;-75
2022/12/31 10:48:15;;;;;;;6.22;1.75;;;;;;;14.57;100.00;100438.75;4997051;28;20057;-78
2022/12/31 10:50:55;;;;;;;8.30;2.15;;;;;;;14.62;100.00;100433.34;5014208;28;20088;-77
2022/12/31 10:53:44;;;;;;;10.77;4.63;;;;;;;14.67;100.00;100457.06;5014469;28;20033;-78
2022/12/31 10:56:21;;;;;;;14.45;6.88;;;;;;;14.66;100.00;100448.09;5010543;28;20128;-75
2022/12/31 10:59:15;;;;;;;6.85;1.80;;;;;;;14.74;100.00;100448.69;4994759;28;20034;-76
2022/12/31 11:01:59;;;;;;;6.82;2.15;;;;;;;14.81;100.00;100446.53;4998949;28;20046;-76
2022/12/31 11:05:03;;;;;;;8.00;3.00;;;;;;;14.85;100.00;100464.81;5013906;28;20033;-77
2022/12/31 11:07:49;;;;;;;5.60;1.90;;;;;;;14.92;100.00;100461.06;4989306;28;20065;-78
2022/12/31 11:10:29;;;;;;;5.00;2.40;;;;;;;14.94;100.00;100461.63;5011910;28;20462;-77
2022/12/31 11:13:26;;;;;;;6.90;2.20;;;;;;;14.91;100.00;100471.13;5014022;28;20045;-77
2022/12/31 11:16:13;;;;;;;7.78;2.03;;;;;;;14.94;100.00;100467.88;5005970;28;20035;-78
2022/12/31 11:18:55;;;;;;;8.02;2.30;;;;;;;14.96;100.00;100473.91;4994451;28;20034;-78
2022/12/31 11:21:52;;;;;;;8.82;1.75;;;;;;;15.01;100.00;100464.94;4994287;28;20066;-78
2022/12/31 11:24:36;;;;;;;7.20;1.92;;;;;;;15.01;100.00;100460.28;4992629;28;20031;-77
2022/12/31 11:27:20;;;;;;;8.60;2.55;;;;;;;15.09;100.00;100466.34;4996258;28;20040;-76
2022/12/31 11:30:10;;;;;;;9.65;2.47;;;;;;;15.09;100.00;100461.69;5001422;28;20034;-78
2022/12/31 11:33:05;;;;;;;8.23;3.00;;;;;;;15.12;100.00;100472.06;5002142;28;20064;-74
2022/12/31 11:35:45;;;;;;;8.35;2.50;;;;;;;15.10;100.00;100482.41;5010613;28;20084;-76
2022/12/31 11:38:23;;;;;;;9.15;2.10;;;;;;;15.10;100.00;100479.69;5004914;28;20037;-77
2022/12/31 11:41:04;;;;;;;7.07;3.30;;;;;;;15.11;100.00;100475.84;4998451;28;20032;-76
2022/12/31 11:43:37;;;;;;;9.27;2.90;;;;;;;15.14;100.00;100480.81;5009088;28;20033;-76
2022/12/31 11:46:24;;;;;;;6.97;2.58;;;;;;;15.09;100.00;100493.59;5003418;28;20083;-76
2022/12/31 11:48:56;;;;;;;6.78;2.28;;;;;;;15.07;100.00;100486.47;5012576;28;20041;-76
2022/12/31 11:51:40;;;;;;;8.00;2.30;;;;;;;15.02;100.00;100475.56;5013125;28;20033;-74
2022/12/31 11:54:40;;;;;;;6.60;1.95;;;;;;;14.98;100.00;100476.34;5011757;28;20412;-75
2022/12/31 11:57:17;;;;;;;8.77;1.80;;;;;;;14.92;100.00;100474.69;5007233;28;20145;-76